Paradise Valley, Pennsylvania
Current Conditions -  °F | °C
As of 10:53 PM on Thursday 18 Dec 2014 (Local Time) from KMPO Reporting Station
Overcast Overcast  
Wind Chill: 18°   Ceiling: 1800
Heat Index: 29°   Visibility: 10mi
Dew Point: 22°   Wind: 14mph
Humidity: 75%   Direction: 310°NW
Pressure: 29.92"   Gusts: 23mph
Location:  41.1664°N, 75.2521°W
Report Text: KMPO 190353Z AUTO 31012G20KT 10SM OVC018 M02/M06 A2992 RMK AO2 SLP152 T10171056
Loading
Personal Weather Stations






























Interactive Weather Map New forecast layout! Learn more

10-Day Weather Forecast

Advertisements
Track Severe Weather on mobile